METAR Formatted Surface Weather Observation
Issued by NWS Charleston, WV

Home | Current Version | Previous Version | Text Only | Print | Product List | Glossary On
Versions: 1 2
000
SAUS41 KRLX 131802 COR
MTRCRW
METAR KCRW 131754Z 33004KT 10SM FEW011 BKN019 OVC036 17/13 A3025 RMK
AO2 SLP238 CIG 017V022 60000 T01670133 10172 20144 51003 $



USA.gov is the U.S. government's official web portal to all federal, state and local government web resources and services.